Time;durP1;ratioP1;P1;durP2;ratioP2;P2;SDS_P1;SDS_P2;PMS_P1;PMS_P2;Temp;Humidity;BMP_temperature;BMP_pressure;BME280_temperature;BME280_humidity;BME280_pressure;Samples;Min_cycle;Max_cycle;Signal;HPM_P1;HPM_P2
2021/04/14 00:00:01;;;;;;;8.18;7.43;;;-0.80;99.90;;;;;;5073927;28;20602;-81
2021/04/14 00:02:30;;;;;;;10.40;7.68;;;-1.00;99.90;;;;;;5074089;28;20667;-82
2021/04/14 00:04:57;;;;;;;10.27;9.20;;;-0.90;99.90;;;;;;5074265;28;20283;-82
2021/04/14 00:07:24;;;;;;;10.80;9.90;;;-1.00;99.90;;;;;;5072992;28;20196;-81
2021/04/14 00:09:51;;;;;;;12.10;10.90;;;-1.00;99.90;;;;;;5074323;28;20241;-80
2021/04/14 00:12:18;;;;;;;12.40;11.50;;;-1.00;99.90;;;;;;5074180;28;20200;-81
2021/04/14 00:14:50;;;;;;;13.35;12.32;;;-1.00;99.90;;;;;;5073474;28;20248;-82
2021/04/14 00:17:17;;;;;;;13.85;12.88;;;-1.10;99.90;;;;;;5074134;28;20196;-81
2021/04/14 00:19:43;;;;;;;13.90;13.00;;;-1.10;99.90;;;;;;5073883;28;20188;-81
2021/04/14 00:22:10;;;;;;;19.55;18.42;;;-1.10;99.90;;;;;;5072858;28;20597;-81
2021/04/14 00:24:38;;;;;;;24.20;22.70;;;-1.10;99.90;;;;;;5073356;28;20220;-80
2021/04/14 00:27:06;;;;;;;25.75;24.17;;;-1.00;99.90;;;;;;5073997;28;20196;-82
2021/04/14 00:29:32;;;;;;;30.80;29.00;;;-1.10;99.90;;;;;;5073339;28;20196;-81
2021/04/14 00:31:59;;;;;;;30.25;28.75;;;-1.00;99.90;;;;;;5073794;28;20192;-82
2021/04/14 00:34:29;;;;;;;32.45;30.65;;;-1.00;99.90;;;;;;5073278;28;20200;-82
2021/04/14 00:36:58;;;;;;;31.80;30.30;;;-1.10;99.90;;;;;;5073099;28;20224;-81
2021/04/14 00:39:25;;;;;;;32.97;31.38;;;-1.30;99.90;;;;;;5065821;28;20188;-81
2021/04/14 00:41:53;;;;;;;36.30;34.50;;;-1.30;99.90;;;;;;5073481;28;20552;-80
2021/04/14 00:44:21;;;;;;;35.13;33.42;;;-1.20;99.90;;;;;;5072989;28;20813;-82
2021/04/14 00:46:49;;;;;;;35.55;33.85;;;-1.20;99.90;;;;;;5073512;28;20199;-82
2021/04/14 00:49:16;;;;;;;37.45;35.75;;;-1.10;99.90;;;;;;5073347;28;20242;-82
2021/04/14 00:51:44;;;;;;;39.03;37.22;;;-0.90;99.90;;;;;;5073099;28;20184;-82
2021/04/14 00:54:11;;;;;;;38.90;37.00;;;-1.00;99.90;;;;;;5072404;28;20196;-82
2021/04/14 00:56:39;;;;;;;39.40;37.30;;;-1.00;99.90;;;;;;5073022;28;20196;-81
2021/04/14 00:59:09;;;;;;;39.22;37.42;;;-1.10;99.90;;;;;;5072616;28;20192;-81
2021/04/14 01:01:36;;;;;;;37.80;36.08;;;-1.20;99.90;;;;;;5072785;28;20200;-81
2021/04/14 01:04:04;;;;;;;39.47;37.38;;;-1.20;99.90;;;;;;5073011;28;20220;-81
2021/04/14 01:06:32;;;;;;;41.60;39.65;;;-1.30;99.90;;;;;;5072905;28;20196;-81
2021/04/14 01:09:01;;;;;;;39.25;37.35;;;-1.40;99.90;;;;;;5071929;28;20180;-81
2021/04/14 01:11:30;;;;;;;39.72;37.92;;;-1.40;99.90;;;;;;5073228;28;20195;-81
2021/04/14 01:13:56;;;;;;;41.65;39.55;;;-1.50;99.90;;;;;;5072057;28;20703;-82
2021/04/14 01:16:23;;;;;;;39.63;37.78;;;-1.50;99.90;;;;;;5073416;28;20275;-81
2021/04/14 01:18:50;;;;;;;40.25;38.35;;;-1.50;99.90;;;;;;5072802;28;20185;-81
2021/04/14 01:21:25;;;;;;;43.03;40.97;;;-1.50;99.90;;;;;;5072543;28;20648;-81
2021/04/14 01:23:52;;;;;;;42.78;40.83;;;-1.40;99.90;;;;;;5071462;28;20691;-81
2021/04/14 01:26:18;;;;;;;44.13;42.00;;;-1.40;99.90;;;;;;5072550;28;20195;-81
2021/04/14 01:28:47;;;;;;;45.55;43.45;;;-1.50;99.90;;;;;;5072299;28;20192;-81
2021/04/14 01:31:16;;;;;;;43.17;41.20;;;-1.50;99.90;;;;;;5072761;28;20593;-81
2021/04/14 01:33:42;;;;;;;45.47;43.28;;;-1.50;99.90;;;;;;5072467;28;20184;-82
2021/04/14 01:36:10;;;;;;;41.22;39.35;;;-1.40;99.90;;;;;;5072059;28;20204;-81
2021/04/14 01:38:38;;;;;;;46.28;43.97;;;-1.30;99.90;;;;;;5071378;28;20743;-81
2021/04/14 01:41:07;;;;;;;46.05;43.90;;;-1.30;99.90;;;;;;5072128;28;20188;-81
2021/04/14 01:43:34;;;;;;;48.53;46.17;;;-1.50;99.90;;;;;;5071469;28;20683;-81
2021/04/14 01:46:05;;;;;;;53.05;48.72;;;-1.50;99.90;;;;;;5072368;28;20283;-82
2021/04/14 01:48:31;;;;;;;47.65;45.45;;;-1.70;99.90;;;;;;5072427;28;20196;-81
2021/04/14 01:50:58;;;;;;;48.42;45.28;;;-1.70;99.90;;;;;;5072138;28;20667;-81
2021/04/14 01:53:24;;;;;;;44.17;42.22;;;-1.80;99.90;;;;;;5071323;28;20279;-81
2021/04/14 01:55:52;;;;;;;46.45;44.25;;;-1.80;99.90;;;;;;5072102;28;20188;-81
2021/04/14 01:58:19;;;;;;;46.25;44.22;;;-1.80;99.90;;;;;;5072197;28;20218;-81
2021/04/14 02:00:49;;;;;;;44.15;42.15;;;-1.90;99.90;;;;;;5072451;28;20189;-81
2021/04/14 02:03:16;;;;;;;43.85;41.95;;;-1.90;99.90;;;;;;5072297;28;20230;-81
2021/04/14 02:05:42;;;;;;;46.03;43.83;;;-1.90;99.90;;;;;;5071859;28;20568;-81
2021/04/14 02:08:10;;;;;;;46.97;44.78;;;-1.90;99.90;;;;;;5071041;28;20199;-80
2021/04/14 02:10:37;;;;;;;43.38;41.47;;;-2.00;99.90;;;;;;5072167;28;20187;-81
2021/04/14 02:13:07;;;;;;;43.30;41.38;;;-2.00;99.90;;;;;;5072233;28;20248;-81
2021/04/14 02:15:35;;;;;;;46.03;43.92;;;-2.10;99.90;;;;;;5063921;28;20189;-81
2021/04/14 02:18:02;;;;;;;44.92;42.83;;;-2.00;99.90;;;;;;5072200;28;20563;-80
2021/04/14 02:20:29;;;;;;;43.45;41.45;;;-2.00;99.90;;;;;;5071364;28;20271;-81
2021/04/14 02:22:56;;;;;;;45.92;43.90;;;-2.00;99.90;;;;;;5071517;28;20268;-81
2021/04/14 02:25:23;;;;;;;44.80;42.70;;;-2.00;99.90;;;;;;5071844;28;20181;-82
2021/04/14 02:27:52;;;;;;;47.47;44.97;;;-2.10;99.90;;;;;;5071606;28;20256;-81
2021/04/14 02:30:25;;;;;;;46.80;44.10;;;-2.00;99.90;;;;;;5052141;28;20536;-80
2021/04/14 02:32:52;;;;;;;49.58;47.40;;;-2.10;99.90;;;;;;5051896;28;20197;-81
2021/04/14 02:35:25;;;;;;;49.13;46.53;;;-2.00;99.90;;;;;;5071737;28;20599;-81
2021/04/14 02:37:52;;;;;;;48.47;46.33;;;-2.10;99.90;;;;;;5070492;28;20216;-80
2021/04/14 02:40:19;;;;;;;48.65;46.47;;;-1.90;99.90;;;;;;5071654;28;20189;-81
2021/04/14 02:42:46;;;;;;;51.92;49.42;;;-2.10;99.90;;;;;;5071600;28;20192;-81
2021/04/14 02:45:15;;;;;;;55.35;52.90;;;-2.20;99.90;;;;;;5071216;28;20192;-81
2021/04/14 02:47:42;;;;;;;49.75;47.58;;;-2.10;99.90;;;;;;5071870;28;20199;-82
2021/04/14 02:50:11;;;;;;;52.05;49.47;;;-2.10;99.90;;;;;;5071321;28;20326;-82
2021/04/14 02:52:37;;;;;;;50.80;48.47;;;-2.20;99.90;;;;;;5070912;28;20189;-81
2021/04/14 02:55:08;;;;;;;50.03;47.83;;;-2.20;99.90;;;;;;5071966;28;20192;-81
2021/04/14 02:57:34;;;;;;;52.05;49.67;;;-2.20;99.90;;;;;;5071453;28;20200;-81
2021/04/14 03:00:01;;;;;;;54.10;51.67;;;-2.20;99.90;;;;;;5071841;28;20192;-81
2021/04/14 03:02:27;;;;;;;57.72;54.70;;;-2.30;99.90;;;;;;5071872;28;20719;-82
2021/04/14 03:04:54;;;;;;;53.53;50.90;;;-2.20;99.90;;;;;;5071031;28;20342;-82
2021/04/14 03:07:21;;;;;;;54.42;51.38;;;-2.30;99.90;;;;;;5071052;28;20192;-82
2021/04/14 03:09:47;;;;;;;53.25;50.90;;;-2.30;99.90;;;;;;5071709;28;20279;-81
2021/04/14 03:12:14;;;;;;;51.75;49.42;;;-2.30;99.90;;;;;;5071536;28;20253;-80
2021/04/14 03:14:40;;;;;;;51.35;49.08;;;-2.30;99.90;;;;;;5071469;28;20631;-81
2021/04/14 03:17:07;;;;;;;52.58;50.08;;;-2.30;99.90;;;;;;5071575;28;20193;-81
2021/04/14 03:19:33;;;;;;;54.78;52.38;;;-2.40;99.90;;;;;;5070946;28;20559;-80
2021/04/14 03:22:01;;;;;;;54.58;51.60;;;-2.40;99.90;;;;;;5071831;28;20193;-81
2021/04/14 03:24:27;;;;;;;53.95;51.45;;;-2.20;99.90;;;;;;5073033;28;20231;-80
2021/04/14 03:26:55;;;;;;;52.67;50.33;;;-2.40;99.90;;;;;;5074558;28;20195;-81
2021/04/14 03:29:21;;;;;;;52.65;50.25;;;-2.40;99.90;;;;;;5075165;28;20279;-80
2021/04/14 03:31:47;;;;;;;53.33;50.97;;;-2.40;99.90;;;;;;5075090;28;20196;-80
2021/04/14 03:34:14;;;;;;;55.45;52.65;;;-2.40;99.90;;;;;;5074468;28;20232;-80
2021/04/14 03:36:40;;;;;;;54.85;52.35;;;-2.30;99.90;;;;;;5074835;28;20220;-80
2021/04/14 03:39:48;;;;;;;;;;;;;;;;;;;;;
2021/04/14 03:42:15;;;;;;;52.70;50.30;;;-2.30;99.90;;;;;;5069423;28;20286;-81
2021/04/14 03:44:42;;;;;;;53.97;51.53;;;-2.30;99.90;;;;;;5074143;28;20231;-80
2021/04/14 03:47:10;;;;;;;54.92;52.42;;;-2.40;99.90;;;;;;5074516;28;20705;-81
2021/04/14 03:49:38;;;;;;;51.75;49.45;;;-2.50;99.90;;;;;;5073642;28;20223;-81
2021/04/14 03:52:05;;;;;;;69.05;52.85;;;-2.40;99.90;;;;;;5076586;28;20199;-80
2021/04/14 03:54:32;;;;;;;53.33;50.95;;;-2.30;99.90;;;;;;5073362;28;20334;-81
2021/04/14 03:57:04;;;;;;;56.88;54.28;;;-2.20;99.90;;;;;;5073659;28;20193;-81
2021/04/14 03:59:33;;;;;;;56.88;53.95;;;-2.10;99.90;;;;;;5074008;28;20231;-80
2021/04/14 04:02:03;;;;;;;57.05;54.42;;;-2.10;99.90;;;;;;5070612;28;20563;-81
2021/04/14 04:04:33;;;;;;;58.55;55.85;;;-2.00;99.90;;;;;;5067786;28;20256;-79
2021/04/14 04:07:02;;;;;;;58.03;55.22;;;-1.90;99.90;;;;;;5055403;28;20193;-81
2021/04/14 04:09:28;;;;;;;56.38;53.85;;;-1.80;99.90;;;;;;5056278;28;20196;-80
2021/04/14 04:11:55;;;;;;;59.85;56.85;;;-1.80;99.90;;;;;;5073811;28;20232;-81
2021/04/14 04:14:24;;;;;;;55.15;52.65;;;-1.80;99.90;;;;;;5074421;28;20192;-81
2021/04/14 04:16:50;;;;;;;56.45;53.83;;;-1.50;99.90;;;;;;5073942;28;20192;-81
2021/04/14 04:19:17;;;;;;;59.85;56.95;;;-1.50;99.90;;;;;;5073563;28;20275;-81
2021/04/14 04:21:43;;;;;;;59.70;56.90;;;-1.30;99.90;;;;;;5073654;28;20232;-81
2021/04/14 04:24:09;;;;;;;64.65;61.72;;;-1.30;99.90;;;;;;5062689;28;20220;-81
2021/04/14 04:26:38;;;;;;;67.65;64.65;;;-1.10;99.90;;;;;;5057277;28;20188;-80
2021/04/14 04:29:05;;;;;;;65.47;61.88;;;-1.10;99.90;;;;;;5074077;28;20200;-81
2021/04/14 04:31:33;;;;;;;64.25;61.35;;;-1.10;99.90;;;;;;5073833;28;20644;-81
2021/04/14 04:33:59;;;;;;;67.45;64.30;;;-1.00;99.90;;;;;;5073261;28;20245;-77
2021/04/14 04:36:26;;;;;;;67.18;64.18;;;-1.10;99.90;;;;;;5072877;28;20231;-80
2021/04/14 04:38:57;;;;;;;66.20;62.50;;;-1.00;99.90;;;;;;5073111;28;20287;-80
2021/04/14 04:41:24;;;;;;;70.18;66.80;;;-1.20;99.90;;;;;;5073026;28;20193;-80
2021/04/14 04:43:51;;;;;;;65.07;61.97;;;-1.30;99.90;;;;;;5073685;28;20219;-80
2021/04/14 04:46:18;;;;;;;64.07;61.22;;;-1.30;99.90;;;;;;5073339;28;20215;-79
2021/04/14 04:48:44;;;;;;;64.28;61.38;;;-1.30;99.90;;;;;;5073242;28;20243;-81
2021/04/14 04:51:19;;;;;;;64.13;61.03;;;-1.40;99.90;;;;;;5073598;28;20200;-80
2021/04/14 04:53:46;;;;;;;65.15;62.25;;;-1.40;99.90;;;;;;5072699;28;20690;-80
2021/04/14 04:56:34;;;;;;;70.07;66.88;;;-1.30;99.90;;;;;;5072855;28;20195;-81
2021/04/14 04:59:06;;;;;;;67.35;64.32;;;-1.30;99.90;;;;;;5007843;28;20660;-81
2021/04/14 05:01:48;;;;;;;66.40;63.38;;;-1.20;99.90;;;;;;5075538;28;20196;-83
2021/04/14 05:04:31;;;;;;;71.43;68.22;;;-1.20;99.90;;;;;;5072892;28;20628;-79
2021/04/14 05:06:59;;;;;;;72.80;69.53;;;-1.10;99.90;;;;;;5072919;28;20192;-80
2021/04/14 05:09:26;;;;;;;79.60;75.85;;;-1.00;99.90;;;;;;5072134;28;20283;-80
2021/04/14 05:11:53;;;;;;;77.10;73.10;;;-0.80;99.90;;;;;;5072551;28;20235;-80
2021/04/14 05:14:21;;;;;;;73.03;69.63;;;-0.60;99.90;;;;;;5073033;28;20196;-79
2021/04/14 05:16:49;;;;;;;75.10;71.50;;;-0.60;99.90;;;;;;5073086;28;20221;-80
2021/04/14 05:19:17;;;;;;;75.68;72.32;;;-0.50;99.90;;;;;;5072979;28;20586;-80
2021/04/14 05:21:48;;;;;;;74.05;70.60;;;-0.40;99.90;;;;;;5073007;28;20208;-80
2021/04/14 05:24:19;;;;;;;78.72;74.88;;;-0.30;99.90;;;;;;5072057;28;20220;-80
2021/04/14 05:26:51;;;;;;;74.50;71.20;;;-0.30;99.90;;;;;;5072360;28;20219;-80
2021/04/14 05:29:27;;;;;;;80.57;76.68;;;-0.20;99.90;;;;;;5072862;28;20203;-79
2021/04/14 05:32:06;;;;;;;81.13;76.88;;;0.00;99.90;;;;;;5070886;28;20226;-79
2021/04/14 05:34:53;;;;;;;79.03;75.60;;;0.10;99.90;;;;;;5073036;28;20246;-81
2021/04/14 05:37:29;;;;;;;79.55;75.80;;;0.20;99.90;;;;;;5066846;28;20682;-81
2021/04/14 05:39:57;;;;;;;77.30;73.22;;;0.30;99.90;;;;;;5071556;28;20671;-79
2021/04/14 05:42:53;;;;;;;70.35;67.15;;;0.50;99.90;;;;;;5072052;28;20192;-80
2021/04/14 05:45:31;;;;;;;67.65;64.68;;;0.60;99.90;;;;;;5052563;28;20559;-80
2021/04/14 05:48:03;;;;;;;62.60;59.65;;;0.80;99.90;;;;;;5052204;28;20201;-79
2021/04/14 05:50:30;;;;;;;61.25;58.42;;;0.80;99.90;;;;;;5052792;28;20197;-82
2021/04/14 05:52:56;;;;;;;69.05;65.75;;;1.00;99.90;;;;;;5055977;28;20276;-81
2021/04/14 05:55:23;;;;;;;62.07;58.90;;;1.20;99.90;;;;;;5072502;28;20257;-80
2021/04/14 05:57:49;;;;;;;59.33;56.50;;;1.20;99.90;;;;;;5072190;28;20478;-81
2021/04/14 06:00:20;;;;;;;47.53;45.00;;;1.30;99.90;;;;;;5072510;28;20235;-79
2021/04/14 06:02:46;;;;;;;41.20;39.10;;;1.30;99.90;;;;;;5071945;28;20450;-82
2021/04/14 06:05:17;;;;;;;42.65;39.90;;;1.50;99.90;;;;;;5072410;28;20224;-80
2021/04/14 06:07:43;;;;;;;42.58;40.47;;;1.50;99.90;;;;;;5069724;28;20652;-79
2021/04/14 06:10:12;;;;;;;39.03;36.63;;;1.50;99.90;;;;;;5052106;28;20276;-79
2021/04/14 06:12:40;;;;;;;36.57;34.67;;;1.50;99.90;;;;;;5060486;28;20554;-81
2021/04/14 06:15:09;;;;;;;32.27;30.00;;;1.50;99.90;;;;;;5072590;28;20481;-81
2021/04/14 06:17:36;;;;;;;38.55;35.97;;;1.40;99.90;;;;;;5071518;28;20455;-80
2021/04/14 06:20:05;;;;;;;32.73;30.60;;;1.50;99.90;;;;;;5066175;28;20621;-81
2021/04/14 06:22:34;;;;;;;28.77;27.00;;;1.50;99.90;;;;;;5070917;28;20515;-80
2021/04/14 06:25:00;;;;;;;26.80;25.30;;;1.60;99.90;;;;;;5071428;28;20964;-81
2021/04/14 06:27:32;;;;;;;27.15;25.55;;;1.70;99.90;;;;;;5071161;28;20442;-81
2021/04/14 06:29:58;;;;;;;33.10;31.20;;;1.70;99.90;;;;;;5058938;28;20190;-79
2021/04/14 06:32:25;;;;;;;34.00;32.00;;;1.90;99.90;;;;;;5067105;28;20446;-80
2021/04/14 06:34:52;;;;;;;33.27;31.37;;;2.00;99.90;;;;;;5071817;28;20535;-81
2021/04/14 06:37:19;;;;;;;33.63;31.87;;;2.00;99.90;;;;;;5070780;28;20985;-79
2021/04/14 06:39:55;;;;;;;41.83;39.60;;;2.20;99.90;;;;;;5071407;28;20498;-81
2021/04/14 06:42:38;;;;;;;35.37;33.13;;;2.50;99.90;;;;;;5072048;28;20442;-79
2021/04/14 06:45:12;;;;;;;29.70;27.33;;;2.50;99.90;;;;;;5071573;28;20482;-79
2021/04/14 06:48:01;;;;;;;27.23;25.70;;;2.70;99.90;;;;;;5067275;28;20448;-79
2021/04/14 06:50:32;;;;;;;24.27;22.77;;;2.90;99.90;;;;;;5057454;28;20469;-79
2021/04/14 06:53:14;;;;;;;20.70;19.30;;;2.90;99.90;;;;;;5070561;28;20501;-79
2021/04/14 06:55:44;;;;;;;22.23;19.93;;;3.10;99.90;;;;;;5071809;28;20519;-80
2021/04/14 06:58:14;;;;;;;13.80;12.60;;;3.30;99.90;;;;;;5068173;28;20450;-80
2021/04/14 07:00:45;;;;;;;11.73;10.50;;;3.50;99.90;;;;;;5051016;28;20556;-80
2021/04/14 07:03:14;;;;;;;18.50;6.13;;;3.80;99.90;;;;;;5064932;28;20503;-80
2021/04/14 07:05:44;;;;;;;11.80;6.87;;;4.10;99.90;;;;;;5074500;28;20513;-80
2021/04/14 07:08:20;;;;;;;10.53;4.30;;;4.40;99.90;;;;;;5069142;28;20446;-81
2021/04/14 07:10:51;;;;;;;12.83;5.50;;;4.60;88.60;;;;;;5073565;28;21039;-80
2021/04/14 07:13:19;;;;;;;9.90;3.83;;;4.80;74.70;;;;;;5074504;28;20451;-81
2021/04/14 07:15:46;;;;;;;10.27;4.90;;;5.20;68.40;;;;;;5072610;28;20852;-80
2021/04/14 07:18:29;;;;;;;7.33;2.53;;;5.40;53.10;;;;;;5071100;28;20474;-81
2021/04/14 07:21:09;;;;;;;10.80;4.57;;;5.60;52.30;;;;;;5074365;28;20462;-81
2021/04/14 07:24:08;;;;;;;21.00;4.33;;;5.70;46.10;;;;;;5061847;28;20479;-81
2021/04/14 07:27:18;;;;;;;18.23;4.77;;;5.90;48.10;;;;;;5055454;28;20458;-81
2021/04/14 07:30:01;;;;;;;12.83;4.17;;;5.90;54.80;;;;;;5055427;28;20455;-82
2021/04/14 07:32:36;;;;;;;9.67;3.17;;;5.60;55.30;;;;;;5054551;28;20462;-81
2021/04/14 07:35:13;;;;;;;7.80;3.03;;;5.40;46.80;;;;;;5055083;28;20808;-82
2021/04/14 07:37:53;;;;;;;8.30;2.43;;;5.30;50.40;;;;;;5053568;28;20491;-81
2021/04/14 07:40:26;;;;;;;8.10;2.97;;;5.30;51.70;;;;;;5055074;28;20447;-81
2021/04/14 07:43:02;;;;;;;11.20;5.37;;;5.20;44.30;;;;;;5058191;28;20456;-81
2021/04/14 07:45:32;;;;;;;29.23;2.70;;;5.30;49.50;;;;;;5054448;28;20521;-80
2021/04/14 07:48:09;;;;;;;12.90;4.73;;;5.30;42.30;;;;;;5054266;28;20542;-80
2021/04/14 07:50:45;;;;;;;7.97;3.40;;;5.50;45.30;;;;;;5054799;28;20461;-81
2021/04/14 07:53:29;;;;;;;7.70;2.57;;;5.40;40.90;;;;;;5056663;28;20818;-81
2021/04/14 07:56:07;;;;;;;10.83;3.87;;;5.60;35.90;;;;;;5054625;28;20481;-81
2021/04/14 07:58:40;;;;;;;7.60;1.80;;;5.80;36.00;;;;;;5055437;28;20451;-81
2021/04/14 08:01:17;;;;;;;9.98;4.00;;;5.90;32.40;;;;;;5055143;28;20539;-82
2021/04/14 08:03:44;;;;;;;10.33;3.90;;;6.00;36.40;;;;;;5055259;28;20250;-81
2021/04/14 08:06:44;;;;;;;11.93;4.87;;;6.30;32.80;;;;;;5054978;28;20453;-86
2021/04/14 08:09:15;;;;;;;8.50;2.83;;;6.50;28.70;;;;;;5053499;28;20451;-81
2021/04/14 08:11:45;;;;;;;14.30;3.17;;;6.40;26.50;;;;;;5054365;28;20600;-82
2021/04/14 08:14:42;;;;;;;17.53;3.97;;;6.60;30.30;;;;;;5059797;28;20457;-83
2021/04/14 08:17:20;;;;;;;10.47;4.00;;;6.80;30.00;;;;;;5074507;28;20448;-83
2021/04/14 08:20:44;;;;;;;14.13;3.00;;;7.10;25.80;;;;;;5074472;28;20967;-82
2021/04/14 08:23:13;;;;;;;33.73;5.47;;;7.60;27.70;;;;;;5062395;28;20918;-82
2021/04/14 08:28:40;;;;;;;9.77;2.33;;;7.10;24.10;;;;;;5070285;28;20460;-82
2021/04/14 08:31:20;;;;;;;12.07;2.97;;;6.80;22.50;;;;;;5071041;28;20484;-82
2021/04/14 08:37:01;;;;;;;11.70;3.93;;;6.80;26.60;;;;;;5059607;28;20485;-84
2021/04/14 08:39:40;;;;;;;15.20;3.03;;;7.00;26.30;;;;;;5070171;28;20461;-83
2021/04/14 08:42:16;;;;;;;13.17;5.03;;;7.10;25.80;;;;;;5064913;28;20543;-84
2021/04/14 08:44:52;;;;;;;14.57;4.10;;;7.40;22.10;;;;;;5063049;28;21026;-82
2021/04/14 08:47:29;;;;;;;10.83;2.73;;;7.80;20.80;;;;;;5072349;28;20971;-83
2021/04/14 08:50:08;;;;;;;12.80;4.27;;;7.70;18.40;;;;;;5072347;28;20469;-82
2021/04/14 08:52:40;;;;;;;13.80;6.10;;;8.20;19.40;;;;;;5070988;28;20454;-83
2021/04/14 08:55:29;;;;;;;15.90;3.57;;;8.90;17.40;;;;;;5072452;28;20976;-84
2021/04/14 08:58:16;;;;;;;;;;;;;;;;;;;;;
2021/04/14 09:00:58;;;;;;;11.53;3.43;;;9.30;14.30;;;;;;5020584;28;20446;-83
2021/04/14 09:03:37;;;;;;;16.90;3.20;;;9.20;15.70;;;;;;5073050;28;20451;-83
2021/04/14 09:06:08;;;;;;;13.70;2.90;;;9.50;13.00;;;;;;5053728;28;20449;-84
2021/04/14 09:08:42;;;;;;;16.10;3.87;;;9.80;13.80;;;;;;5060776;28;20960;-85
2021/04/14 09:11:24;;;;;;;14.70;3.57;;;10.50;8.80;;;;;;5060443;28;20810;-82
2021/04/14 09:14:01;;;;;;;16.00;4.10;;;10.10;9.70;;;;;;5072856;28;20481;-82
2021/04/14 09:16:42;;;;;;;14.23;3.53;;;9.90;7.20;;;;;;5065991;28;20810;-81
2021/04/14 09:19:22;;;;;;;17.30;5.20;;;9.90;10.40;;;;;;5062159;28;21037;-81
2021/04/14 09:21:57;;;;;;;14.93;3.93;;;9.70;13.10;;;;;;5072392;28;20817;-83
2021/04/14 09:24:43;;;;;;;19.33;6.50;;;9.60;12.20;;;;;;5064571;28;21097;-83
2021/04/14 09:27:24;;;;;;;15.53;3.87;;;9.40;9.40;;;;;;5064328;28;20454;-83
2021/04/14 09:29:58;;;;;;;22.10;6.13;;;9.30;9.90;;;;;;5069752;28;20552;-82
2021/04/14 09:32:53;;;;;;;16.57;6.13;;;9.20;7.80;;;;;;5069868;28;20984;-83
2021/04/14 09:35:24;;;;;;;18.57;5.30;;;9.40;6.30;;;;;;5072514;28;20456;-81
2021/04/14 09:37:52;;;;;;;20.57;5.07;;;9.30;6.60;;;;;;5071544;28;20517;-82
2021/04/14 09:40:32;;;;;;;21.33;6.33;;;9.40;8.00;;;;;;5072534;28;20453;-83
2021/04/14 09:42:58;;;;;;;15.23;4.33;;;9.10;6.40;;;;;;5071890;28;20537;-82
2021/04/14 09:45:36;;;;;;;17.03;5.07;;;9.20;5.20;;;;;;5073002;28;20832;-82
2021/04/14 09:48:21;;;;;;;21.97;6.20;;;9.30;6.20;;;;;;5072377;28;20542;-83
2021/04/14 09:50:49;;;;;;;20.43;6.83;;;9.20;6.60;;;;;;5067817;28;20501;-84
2021/04/14 09:53:25;;;;;;;18.60;5.50;;;9.70;5.60;;;;;;5071280;28;20506;-83
2021/04/14 09:55:59;;;;;;;20.23;5.07;;;10.20;1.00;;;;;;5072393;28;20476;-83
2021/04/14 09:58:41;;;;;;;20.10;6.13;;;10.40;1.00;;;;;;5072903;28;20446;-83
2021/04/14 10:01:18;;;;;;;18.17;4.80;;;10.60;1.00;;;;;;5072839;28;20464;-84
2021/04/14 10:03:48;;;;;;;18.87;5.30;;;11.30;1.00;;;;;;5072830;28;20447;-83
2021/04/14 10:06:24;;;;;;;21.30;5.20;;;11.80;1.00;;;;;;5072694;28;20538;-83
2021/04/14 10:08:58;;;;;;;19.37;5.73;;;12.20;1.00;;;;;;5069314;28;20450;-83
2021/04/14 10:11:27;;;;;;;23.23;4.53;;;12.70;1.00;;;;;;5069209;28;20453;-82
2021/04/14 10:17:11;;;;;;;23.90;5.70;;;12.10;1.00;;;;;;4952939;28;20450;-84
2021/04/14 10:19:53;;;;;;;24.60;6.27;;;12.10;1.00;;;;;;5039017;28;21102;-83
2021/04/14 10:22:29;;;;;;;24.87;6.00;;;12.40;1.00;;;;;;5065870;28;20451;-84
2021/04/14 10:25:04;;;;;;;22.27;4.73;;;13.60;1.00;;;;;;5072182;28;21024;-83
2021/04/14 10:27:34;;;;;;;23.80;5.13;;;13.20;1.00;;;;;;5058791;28;20886;-83
2021/04/14 10:32:52;;;;;;;24.77;4.60;;;12.30;1.00;;;;;;5065687;28;20454;-84
2021/04/14 10:35:26;;;;;;;22.40;5.00;;;12.50;1.00;;;;;;5076595;28;20462;-84
2021/04/14 10:37:56;;;;;;;23.97;4.50;;;12.80;1.00;;;;;;5075163;28;20469;-84
2021/04/14 10:40:30;;;;;;;20.37;2.83;;;11.80;1.00;;;;;;5076185;28;20958;-84
2021/04/14 10:43:11;;;;;;;20.80;2.40;;;10.80;1.00;;;;;;5076432;28;20446;-84
2021/04/14 10:45:37;;;;;;;27.40;5.60;;;10.50;1.00;;;;;;5076343;28;20952;-84
2021/04/14 10:48:06;;;;;;;19.77;4.43;;;11.30;1.00;;;;;;5076579;28;21043;-84
2021/04/14 10:55:59;;;;;;;18.80;4.50;;;12.30;1.00;;;;;;5071898;28;20478;-84
2021/04/14 10:58:26;;;;;;;21.33;4.90;;;12.40;1.00;;;;;;5076274;28;20474;-85
2021/04/14 11:01:11;;;;;;;20.43;2.90;;;12.80;1.00;;;;;;5072952;28;20489;-84
2021/04/14 11:04:04;;;;;;;21.40;3.67;;;12.80;1.00;;;;;;5074731;28;20818;-85
2021/04/14 11:06:31;;;;;;;21.83;5.57;;;12.40;1.00;;;;;;5075196;28;20442;-83
2021/04/14 11:08:58;;;;;;;23.60;5.57;;;10.50;1.00;;;;;;5074517;28;20457;-83
2021/04/14 11:11:25;;;;;;;19.23;3.87;;;9.40;1.00;;;;;;5075226;28;20442;-82
2021/04/14 11:13:52;;;;;;;22.37;5.87;;;8.10;2.80;;;;;;5075597;28;20453;-85
2021/04/14 11:16:30;;;;;;;15.30;3.07;;;6.90;99.90;;;;;;5075189;28;20491;-83
2021/04/14 11:18:57;;;;;;;16.70;4.40;;;6.40;19.90;;;;;;5074655;28;20543;-82
2021/04/14 11:21:29;;;;;;;15.27;4.57;;;4.90;99.90;;;;;;5075438;28;20458;-83
2021/04/14 11:24:05;;;;;;;13.70;4.20;;;4.50;99.90;;;;;;5073881;28;20984;-81
2021/04/14 11:26:35;;;;;;;13.17;3.27;;;4.30;96.90;;;;;;5055920;28;20937;-83
2021/04/14 11:29:02;;;;;;;11.20;3.70;;;4.50;99.90;;;;;;5070513;28;20482;-81
2021/04/14 11:31:33;;;;;;;13.83;5.13;;;4.50;99.90;;;;;;5075540;28;20500;-83
2021/04/14 11:34:01;;;;;;;15.47;4.43;;;4.20;99.90;;;;;;5074628;28;20454;-82
2021/04/14 11:36:32;;;;;;;8.70;2.10;;;3.90;99.90;;;;;;5062657;28;20474;-81
2021/04/14 11:39:04;;;;;;;14.27;4.00;;;4.00;99.90;;;;;;5074096;28;20814;-81
2021/04/14 11:41:34;;;;;;;12.73;4.20;;;4.00;99.90;;;;;;5075692;28;20450;-82
2021/04/14 11:44:01;;;;;;;11.50;4.40;;;4.20;99.90;;;;;;5070031;28;20471;-80
2021/04/14 11:46:36;;;;;;;12.60;5.37;;;4.50;99.90;;;;;;5065715;28;20600;-83
2021/04/14 11:49:05;;;;;;;22.53;8.80;;;4.90;99.90;;;;;;5075350;28;20446;-82
2021/04/14 11:51:36;;;;;;;14.53;6.53;;;5.30;99.90;;;;;;5075115;28;20465;-83
2021/04/14 11:54:06;;;;;;;16.30;5.27;;;5.80;99.90;;;;;;5073796;28;20486;-81
2021/04/14 11:56:40;;;;;;;18.27;5.10;;;6.00;99.90;;;;;;5074773;28;20475;-81
2021/04/14 11:59:30;;;;;;;13.47;7.03;;;6.40;99.90;;;;;;5074718;28;20492;-81
2021/04/14 12:02:01;;;;;;;13.93;6.17;;;6.60;99.90;;;;;;5067798;28;20454;-82
2021/04/14 12:04:29;;;;;;;17.57;7.00;;;6.70;99.90;;;;;;5074068;28;20494;-81
2021/04/14 12:06:55;;;;;;;13.23;5.13;;;7.00;99.90;;;;;;5074074;28;20459;-83
2021/04/14 12:09:22;;;;;;;15.47;6.50;;;7.40;99.90;;;;;;5073544;28;20457;-83
2021/04/14 12:12:00;;;;;;;15.40;6.50;;;7.60;90.90;;;;;;5074565;28;20834;-84
2021/04/14 12:14:27;;;;;;;12.70;5.10;;;8.10;99.90;;;;;;5072204;28;20502;-83
2021/04/14 12:16:53;;;;;;;17.37;5.30;;;9.20;99.90;;;;;;5061416;28;20500;-81
2021/04/14 12:19:19;;;;;;;14.30;4.83;;;9.70;37.50;;;;;;5074726;28;20450;-80
2021/04/14 12:21:48;;;;;;;16.90;6.07;;;10.30;29.90;;;;;;5074652;28;20529;-86
2021/04/14 12:24:15;;;;;;;17.37;5.50;;;10.80;49.70;;;;;;5073089;28;20832;-81
2021/04/14 12:26:42;;;;;;;20.13;7.00;;;10.80;18.30;;;;;;5074515;28;20457;-82
2021/04/14 12:29:09;;;;;;;21.97;6.23;;;11.00;39.20;;;;;;5074498;28;20560;-83
2021/04/14 12:31:35;;;;;;;20.37;6.67;;;12.50;46.10;;;;;;5074238;28;20457;-83
2021/04/14 12:34:05;;;;;;;19.70;4.70;;;12.70;4.70;;;;;;5073933;28;20473;-83
2021/04/14 12:36:33;;;;;;;18.77;4.83;;;13.60;7.80;;;;;;5073028;28;20483;-84
2021/04/14 12:39:02;;;;;;;21.57;5.23;;;14.20;1.00;;;;;;5073220;28;20863;-83
2021/04/14 12:41:34;;;;;;;19.73;4.93;;;14.20;1.00;;;;;;5069252;28;20451;-84
2021/04/14 12:44:16;;;;;;;22.70;6.43;;;14.70;1.00;;;;;;5066118;28;20885;-85
2021/04/14 12:46:56;;;;;;;23.63;5.57;;;14.00;1.00;;;;;;5074221;28;20446;-84
2021/04/14 12:49:26;;;;;;;20.63;4.17;;;11.20;1.00;;;;;;5073762;28;20547;-84
2021/04/14 12:51:59;;;;;;;23.33;4.83;;;9.80;14.70;;;;;;5073582;28;20460;-85
2021/04/14 12:54:32;;;;;;;22.73;5.33;;;8.70;18.00;;;;;;5072679;28;20487;-84
2021/04/14 12:57:07;;;;;;;18.47;5.43;;;7.90;20.50;;;;;;5073309;28;20479;-83
2021/04/14 12:59:41;;;;;;;17.40;5.37;;;7.70;21.70;;;;;;5073540;28;20462;-84
2021/04/14 13:02:11;;;;;;;23.07;5.33;;;7.70;20.50;;;;;;5074281;28;20450;-84
2021/04/14 13:04:45;;;;;;;16.10;4.53;;;8.00;15.60;;;;;;5073648;28;20833;-85
2021/04/14 13:07:15;;;;;;;13.00;4.43;;;8.90;15.40;;;;;;5073866;28;20552;-85
2021/04/14 13:09:41;;;;;;;14.90;5.13;;;9.80;12.50;;;;;;5073391;28;20510;-85
2021/04/14 13:12:11;;;;;;;14.17;4.07;;;9.50;4.00;;;;;;5073642;28;20469;-85
2021/04/14 13:14:38;;;;;;;20.33;3.60;;;9.30;6.30;;;;;;5073785;28;20533;-84
2021/04/14 13:17:10;;;;;;;13.63;4.00;;;9.50;3.60;;;;;;5073441;28;20532;-85
2021/04/14 13:19:37;;;;;;;14.90;3.60;;;9.00;3.90;;;;;;5073338;28;20502;-83